首页
METAR-TAF:

METAR-TAF

机场 :

Fairford, 英格兰

纬度: 51-41N, 经度: 001-47W, 海拔: 87米

当前天气观测

该预报发布于14分钟前的18:56 UTC
风速15节,风向西转西南,有时为23节阵风
温度 6°C
湿度 93%
气压 1014 hPa
能见度10公里或以上
少量云层高于2700英尺
散云层高于3800英尺
散云层高于5500英尺

METAR: EGVA 181856Z AUTO 25015G23KT 9999 FEW027 SCT038 SCT055 06/05 A2993 RMK AO2 PK WND 26026/36 RAB23E44 SLP142 P0000 T00640046 $

时间: 19:10 (19:10 UTC)


TAF: 丢失

超过4000个机场的气象观测和天气预报(METAR&TAF报告)。

可查询的气象台以黄色和红色小点在地图上表示。

将鼠标移到小点上方,可查看气象台名称。

然后点击查看天气观测和预报。

如需切换地图:点击带黑十字的绿色按钮放大地图;点击带横线的绿色按钮缩小地图;或者点击绿色箭头查看邻近地区的地图。


METAR-TAF: